VOZ965 YSSY-YBBN
Flight info
| Callsign | VOZ965 |
|---|---|
| Flight time | N/A |
| Altitude | 37000 |
| Route | OLSEM Y193 BANDA H252 BN |
| Aircraft | B738/M-SDE2E3FGHIRWXY/LB1 |
Departure
| Time | 2026-04-24 06:40 |
|---|---|
| Airport | Sydney Kingsford Smith International Airport (YSSY) |
Arrival
| Time | N/A |
|---|---|
| Airport | Brisbane International Airport (YBBN) |
| Time | Latitude | Longitude | Altitude | Speed | Heading |
|---|---|---|---|---|---|
| 2026-04-24 06:13 | -33.93523 | 151.17917 | 28 ft | 0 kts | 100° |
| 2026-04-24 06:24 | -33.93522 | 151.17908 | 28 ft | 2 kts | 100° |
| 2026-04-24 06:24 | -33.93520 | 151.17889 | 28 ft | 2 kts | 99° |
| 2026-04-24 06:25 | -33.93517 | 151.17871 | 28 ft | 2 kts | 102° |
| 2026-04-24 06:25 | -33.93509 | 151.17856 | 28 ft | 2 kts | 140° |
| 2026-04-24 06:25 | -33.93496 | 151.17847 | 28 ft | 2 kts | 171° |
| 2026-04-24 06:25 | -33.93486 | 151.17847 | 28 ft | 1 kts | 189° |
| 2026-04-24 06:26 | -33.93480 | 151.17848 | 28 ft | 0 kts | 190° |
| 2026-04-24 06:29 | -33.93524 | 151.17839 | 28 ft | 11 kts | 189° |
| 2026-04-24 06:30 | -33.93598 | 151.17824 | 28 ft | 10 kts | 189° |
| 2026-04-24 06:30 | -33.93666 | 151.17807 | 28 ft | 12 kts | 194° |
| 2026-04-24 06:30 | -33.93765 | 151.17776 | 28 ft | 14 kts | 194° |
| 2026-04-24 06:30 | -33.93858 | 151.17766 | 28 ft | 12 kts | 167° |
| 2026-04-24 06:31 | -33.93924 | 151.17786 | 28 ft | 0 kts | 167° |
| 2026-04-24 06:32 | -33.93972 | 151.17798 | 28 ft | 15 kts | 167° |
| 2026-04-24 06:32 | -33.94111 | 151.17835 | 28 ft | 24 kts | 168° |
| 2026-04-24 06:32 | -33.94281 | 151.17879 | 28 ft | 24 kts | 168° |
| 2026-04-24 06:32 | -33.94445 | 151.17911 | 28 ft | 22 kts | 193° |
| 2026-04-24 06:33 | -33.94592 | 151.17900 | 28 ft | 20 kts | 167° |
| 2026-04-24 06:33 | -33.94737 | 151.17938 | 28 ft | 23 kts | 168° |
| 2026-04-24 06:33 | -33.94925 | 151.17987 | 27 ft | 24 kts | 168° |
| 2026-04-24 06:33 | -33.95042 | 151.18016 | 28 ft | 0 kts | 168° |
| 2026-04-24 06:36 | -33.95072 | 151.18027 | 28 ft | 8 kts | 154° |
| 2026-04-24 06:36 | -33.95099 | 151.18102 | 28 ft | 14 kts | 84° |
| 2026-04-24 06:37 | -33.95077 | 151.18234 | 28 ft | 15 kts | 78° |
| 2026-04-24 06:37 | -33.95055 | 151.18359 | 28 ft | 14 kts | 77° |
| 2026-04-24 06:37 | -33.95031 | 151.18488 | 27 ft | 20 kts | 77° |
| 2026-04-24 06:37 | -33.95000 | 151.18666 | 28 ft | 16 kts | 78° |
| 2026-04-24 06:38 | -33.94991 | 151.18710 | 28 ft | 0 kts | 77° |
| 2026-04-24 06:38 | -33.94991 | 151.18712 | 28 ft | 1 kts | 77° |
| 2026-04-24 06:39 | -33.94981 | 151.18771 | 28 ft | 8 kts | 83° |
| 2026-04-24 06:39 | -33.95005 | 151.18842 | 28 ft | 9 kts | 155° |
| 2026-04-24 06:39 | -33.95103 | 151.18866 | 28 ft | 29 kts | 168° |
| 2026-04-24 06:39 | -33.95572 | 151.18988 | 28 ft | 104 kts | 168° |
| 2026-04-24 06:40 | -33.96520 | 151.19235 | 33 ft | 165 kts | 168° |
| 2026-04-24 06:40 | -33.97682 | 151.19530 | 760 ft | 163 kts | 167° |
| 2026-04-24 06:40 | -33.98754 | 151.20113 | 1266 ft | 180 kts | 134° |
| 2026-04-24 06:40 | -33.99392 | 151.21402 | 2027 ft | 172 kts | 108° |
| 2026-04-24 06:41 | -33.99867 | 151.22797 | 2427 ft | 184 kts | 115° |
| 2026-04-24 06:41 | -34.00564 | 151.24213 | 2795 ft | 197 kts | 122° |
| 2026-04-24 06:41 | -34.01571 | 151.25502 | 3006 ft | 223 kts | 139° |
| 2026-04-24 06:41 | -34.02887 | 151.26710 | 3401 ft | 240 kts | 141° |
| 2026-04-24 06:42 | -34.04283 | 151.27971 | 3956 ft | 249 kts | 140° |
| 2026-04-24 06:42 | -34.05693 | 151.29312 | 4392 ft | 263 kts | 139° |
| 2026-04-24 06:42 | -34.07142 | 151.30714 | 5098 ft | 264 kts | 139° |
| 2026-04-24 06:42 | -34.08589 | 151.32126 | 5771 ft | 267 kts | 138° |
| 2026-04-24 06:43 | -34.09876 | 151.33769 | 6410 ft | 269 kts | 123° |
| 2026-04-24 06:43 | -34.10668 | 151.35808 | 7099 ft | 269 kts | 104° |
| 2026-04-24 06:43 | -34.10876 | 151.38046 | 7797 ft | 270 kts | 88° |
| 2026-04-24 06:43 | -34.10613 | 151.40283 | 8491 ft | 273 kts | 74° |
| 2026-04-24 06:44 | -34.09769 | 151.42342 | 9186 ft | 277 kts | 54° |
| 2026-04-24 06:44 | -34.08499 | 151.44090 | 9852 ft | 281 kts | 49° |
| 2026-04-24 06:44 | -34.07139 | 151.45789 | 10471 ft | 287 kts | 45° |
| 2026-04-24 06:44 | -34.05518 | 151.47231 | 10971 ft | 301 kts | 30° |
| 2026-04-24 06:45 | -34.03504 | 151.48129 | 11369 ft | 317 kts | 18° |
| 2026-04-24 06:45 | -34.01300 | 151.48799 | 11761 ft | 332 kts | 15° |
| 2026-04-24 06:45 | -33.99004 | 151.49452 | 12099 ft | 348 kts | 16° |
| 2026-04-24 06:45 | -33.96622 | 151.50159 | 12435 ft | 362 kts | 17° |
| 2026-04-24 06:46 | -33.94146 | 151.50929 | 12961 ft | 371 kts | 17° |